AAL2742 SAEZ-SACO
Flight info
| Callsign | AAL2742 |
|---|---|
| Flight time | 1h 15m |
| Altitude | 36000 |
| Route | ATOVO2A ATOVO UW5 ASISA ASISA1Q |
| Aircraft | B77W/H-SDE1E2E3FGHIJ2J3J4J5M1RWXY/LB1D1 |
Departure
| Time | 2026-04-28 02:40 |
|---|---|
| Airport | Ezeiza International Airport - Ministro Pistarini (SAEZ) |
Arrival
| Time | 2026-04-28 03:55 |
|---|---|
| Airport | Ingeniero Aeronáutico Ambrosio L.V. Taravella International Airport (SACO) |
| Time | Latitude | Longitude | Altitude | Speed | Heading |
|---|---|---|---|---|---|
| 2026-04-28 02:21 | -34.81608 | -58.53989 | 79 ft | 0 kts | 316° |
| 2026-04-28 02:27 | -34.81611 | -58.53985 | 80 ft | 2 kts | 316° |
| 2026-04-28 02:28 | -34.81624 | -58.53971 | 80 ft | 3 kts | 319° |
| 2026-04-28 02:28 | -34.81639 | -58.53957 | 80 ft | 3 kts | 330° |
| 2026-04-28 02:28 | -34.81658 | -58.53946 | 80 ft | 3 kts | 340° |
| 2026-04-28 02:28 | -34.81678 | -58.53940 | 80 ft | 3 kts | 351° |
| 2026-04-28 02:29 | -34.81698 | -58.53938 | 80 ft | 3 kts | 2° |
| 2026-04-28 02:29 | -34.81718 | -58.53941 | 80 ft | 3 kts | 12° |
| 2026-04-28 02:29 | -34.81738 | -58.53949 | 80 ft | 3 kts | 22° |
| 2026-04-28 02:29 | -34.81757 | -58.53960 | 80 ft | 3 kts | 30° |
| 2026-04-28 02:30 | -34.81774 | -58.53974 | 80 ft | 3 kts | 38° |
| 2026-04-28 02:30 | -34.81789 | -58.53990 | 80 ft | 2 kts | 45° |
| 2026-04-28 02:30 | -34.81789 | -58.53991 | 80 ft | 0 kts | 45° |
| 2026-04-28 02:31 | -34.81787 | -58.53988 | 80 ft | 4 kts | 45° |
| 2026-04-28 02:31 | -34.81758 | -58.53953 | 80 ft | 5 kts | 45° |
| 2026-04-28 02:31 | -34.81741 | -58.53931 | 80 ft | 2 kts | 45° |
| 2026-04-28 02:31 | -34.81740 | -58.53930 | 80 ft | 0 kts | 45° |
| 2026-04-28 02:32 | -34.81729 | -58.53914 | 80 ft | 10 kts | 51° |
| 2026-04-28 02:32 | -34.81678 | -58.53822 | 80 ft | 14 kts | 63° |
| 2026-04-28 02:32 | -34.81722 | -58.53737 | 80 ft | 0 kts | 151° |
| 2026-04-28 02:33 | -34.81727 | -58.53733 | 80 ft | 6 kts | 151° |
| 2026-04-28 02:33 | -34.81767 | -58.53708 | 80 ft | 11 kts | 153° |
| 2026-04-28 02:33 | -34.81826 | -58.53672 | 80 ft | 8 kts | 153° |
| 2026-04-28 02:34 | -34.81894 | -58.53607 | 80 ft | 13 kts | 116° |
| 2026-04-28 02:34 | -34.81920 | -58.53497 | 80 ft | 17 kts | 106° |
| 2026-04-28 02:34 | -34.81953 | -58.53354 | 80 ft | 17 kts | 105° |
| 2026-04-28 02:34 | -34.81979 | -58.53229 | 80 ft | 13 kts | 104° |
| 2026-04-28 02:35 | -34.82000 | -58.53127 | 80 ft | 15 kts | 103° |
| 2026-04-28 02:35 | -34.82032 | -58.52962 | 80 ft | 25 kts | 103° |
| 2026-04-28 02:35 | -34.82078 | -58.52725 | 80 ft | 32 kts | 104° |
| 2026-04-28 02:35 | -34.82132 | -58.52473 | 80 ft | 28 kts | 104° |
| 2026-04-28 02:36 | -34.82174 | -58.52259 | 80 ft | 23 kts | 103° |
| 2026-04-28 02:36 | -34.82208 | -58.52087 | 80 ft | 18 kts | 103° |
| 2026-04-28 02:36 | -34.82236 | -58.51943 | 80 ft | 16 kts | 104° |
| 2026-04-28 02:36 | -34.82261 | -58.51826 | 80 ft | 14 kts | 104° |
| 2026-04-28 02:37 | -34.82303 | -58.51782 | 80 ft | 10 kts | 181° |
| 2026-04-28 02:37 | -34.82365 | -58.51793 | 80 ft | 7 kts | 188° |
| 2026-04-28 02:37 | -34.82401 | -58.51801 | 80 ft | 3 kts | 191° |
| 2026-04-28 02:37 | -34.82410 | -58.51803 | 80 ft | 0 kts | 191° |
| 2026-04-28 02:38 | -34.82418 | -58.51805 | 80 ft | 6 kts | 191° |
| 2026-04-28 02:38 | -34.82470 | -58.51820 | 80 ft | 7 kts | 197° |
| 2026-04-28 02:38 | -34.82523 | -58.51871 | 80 ft | 12 kts | 250° |
| 2026-04-28 02:38 | -34.82515 | -58.51956 | 80 ft | 12 kts | 284° |
| 2026-04-28 02:39 | -34.82462 | -58.52234 | 80 ft | 63 kts | 283° |
| 2026-04-28 02:39 | -34.82321 | -58.52994 | 80 ft | 120 kts | 282° |
| 2026-04-28 02:39 | -34.82112 | -58.54184 | 89 ft | 166 kts | 282° |
| 2026-04-28 02:39 | -34.81859 | -58.55642 | 444 ft | 183 kts | 282° |
| 2026-04-28 02:40 | -34.81591 | -58.57169 | 1137 ft | 186 kts | 280° |
| 2026-04-28 02:40 | -34.81320 | -58.58716 | 1774 ft | 194 kts | 279° |
| 2026-04-28 02:40 | -34.81270 | -58.60392 | 2396 ft | 208 kts | 263° |
| 2026-04-28 02:40 | -34.81784 | -58.62106 | 2996 ft | 223 kts | 240° |
| 2026-04-28 02:41 | -34.82689 | -58.63658 | 3985 ft | 224 kts | 234° |
| 2026-04-28 02:41 | -34.83650 | -58.65179 | 4979 ft | 226 kts | 233° |
| 2026-04-28 02:41 | -34.84686 | -58.66639 | 5861 ft | 234 kts | 229° |
| 2026-04-28 02:41 | -34.85898 | -58.67973 | 6735 ft | 239 kts | 220° |
| 2026-04-28 02:42 | -34.87314 | -58.69058 | 7698 ft | 243 kts | 211° |
| 2026-04-28 02:42 | -34.88887 | -58.69831 | 8668 ft | 244 kts | 201° |
| 2026-04-28 02:42 | -34.90539 | -58.70219 | 9806 ft | 238 kts | 190° |
| 2026-04-28 02:42 | -34.92180 | -58.70166 | 10760 ft | 240 kts | 177° |
| 2026-04-28 02:43 | -34.93801 | -58.69439 | 11517 ft | 262 kts | 155° |
| 2026-04-28 02:43 | -34.95171 | -58.67765 | 11938 ft | 297 kts | 128° |
| 2026-04-28 02:43 | -34.95918 | -58.65348 | 12532 ft | 323 kts | 104° |
| 2026-04-28 02:43 | -34.95868 | -58.62513 | 13098 ft | 347 kts | 80° |
| 2026-04-28 02:44 | -34.94941 | -58.59713 | 13646 ft | 367 kts | 58° |
| 2026-04-28 02:44 | -34.93214 | -58.57352 | 14177 ft | 382 kts | 36° |
| 2026-04-28 02:44 | -34.90877 | -58.55735 | 14829 ft | 391 kts | 18° |
| 2026-04-28 02:44 | -34.88229 | -58.54894 | 15541 ft | 396 kts | 4° |
| 2026-04-28 02:45 | -34.85457 | -58.54447 | 16253 ft | 407 kts | 4° |
| 2026-04-28 02:45 | -34.82668 | -58.53927 | 17100 ft | 411 kts | 1° |
| 2026-04-28 02:45 | -34.79837 | -58.53913 | 17955 ft | 406 kts | 347° |
| 2026-04-28 02:45 | -34.77124 | -58.54796 | 18813 ft | 400 kts | 331° |
| 2026-04-28 02:46 | -34.74717 | -58.56447 | 19684 ft | 394 kts | 318° |
| 2026-04-28 02:46 | -34.72549 | -58.58500 | 20448 ft | 398 kts | 316° |
| 2026-04-28 02:46 | -34.70314 | -58.60454 | 21436 ft | 398 kts | 319° |
| 2026-04-28 02:46 | -34.68019 | -58.62378 | 22313 ft | 402 kts | 319° |
| 2026-04-28 02:47 | -34.65691 | -58.64315 | 23103 ft | 406 kts | 319° |
| 2026-04-28 02:47 | -34.63353 | -58.66283 | 23833 ft | 411 kts | 319° |
| 2026-04-28 02:47 | -34.61020 | -58.68265 | 24529 ft | 415 kts | 318° |
| 2026-04-28 02:47 | -34.58639 | -58.70298 | 25203 ft | 420 kts | 318° |
| 2026-04-28 02:48 | -34.56236 | -58.72355 | 25864 ft | 425 kts | 318° |
| 2026-04-28 02:48 | -34.53807 | -58.74435 | 26516 ft | 429 kts | 318° |
| 2026-04-28 02:48 | -34.51352 | -58.76538 | 27149 ft | 433 kts | 317° |
| 2026-04-28 02:48 | -34.48878 | -58.78657 | 27806 ft | 435 kts | 318° |
| 2026-04-28 02:49 | -34.46425 | -58.80757 | 28426 ft | 438 kts | 317° |
| 2026-04-28 02:49 | -34.43921 | -58.82900 | 28982 ft | 442 kts | 317° |
| 2026-04-28 02:49 | -34.41390 | -58.85064 | 29526 ft | 446 kts | 317° |
| 2026-04-28 02:49 | -34.38839 | -58.87243 | 30047 ft | 449 kts | 317° |
| 2026-04-28 02:50 | -34.36269 | -58.89437 | 30531 ft | 452 kts | 317° |
| 2026-04-28 02:50 | -34.33688 | -58.91639 | 31004 ft | 454 kts | 317° |
| 2026-04-28 02:50 | -34.31141 | -58.93821 | 31575 ft | 453 kts | 317° |
| 2026-04-28 02:50 | -34.28571 | -58.96023 | 32175 ft | 452 kts | 317° |
| 2026-04-28 02:51 | -34.25999 | -58.98214 | 32744 ft | 450 kts | 317° |
| 2026-04-28 02:51 | -34.23449 | -59.00381 | 33376 ft | 446 kts | 318° |
| 2026-04-28 02:51 | -34.20913 | -59.02532 | 33939 ft | 444 kts | 317° |
| 2026-04-28 02:51 | -34.18373 | -59.04683 | 34398 ft | 444 kts | 317° |
| 2026-04-28 02:52 | -34.15837 | -59.06830 | 34852 ft | 443 kts | 317° |
| 2026-04-28 02:52 | -34.13342 | -59.08941 | 35276 ft | 443 kts | 317° |
| 2026-04-28 02:52 | -34.10818 | -59.11076 | 35690 ft | 443 kts | 317° |
| 2026-04-28 02:52 | -34.08303 | -59.13210 | 36048 ft | 442 kts | 316° |
| 2026-04-28 02:53 | -34.05956 | -59.15565 | 36143 ft | 435 kts | 309° |
| 2026-04-28 02:53 | -34.01900 | -59.20933 | 36134 ft | 427 kts | 303° |
| 2026-04-28 02:54 | -33.98157 | -59.26434 | 36131 ft | 427 kts | 303° |
| 2026-04-28 02:54 | -33.94346 | -59.31958 | 36131 ft | 429 kts | 303° |
| 2026-04-28 02:55 | -33.90814 | -59.37036 | 36129 ft | 429 kts | 303° |
| 2026-04-28 02:55 | -33.87023 | -59.42552 | 36130 ft | 430 kts | 303° |
| 2026-04-28 02:56 | -33.83175 | -59.48072 | 36130 ft | 429 kts | 304° |
| 2026-04-28 02:56 | -33.79324 | -59.53568 | 36131 ft | 429 kts | 304° |
| 2026-04-28 02:57 | -33.75470 | -59.59062 | 36125 ft | 430 kts | 304° |
| 2026-04-28 02:57 | -33.71632 | -59.64526 | 36112 ft | 430 kts | 303° |
| 2026-04-28 02:58 | -33.67772 | -59.70009 | 36115 ft | 428 kts | 303° |
| 2026-04-28 02:58 | -33.63915 | -59.75468 | 36116 ft | 428 kts | 303° |
| 2026-04-28 02:59 | -33.60054 | -59.80922 | 36113 ft | 429 kts | 304° |
| 2026-04-28 02:59 | -33.56181 | -59.86383 | 36112 ft | 433 kts | 304° |
| 2026-04-28 03:00 | -33.52275 | -59.91883 | 36112 ft | 432 kts | 304° |
| 2026-04-28 03:00 | -33.48372 | -59.97371 | 36112 ft | 432 kts | 304° |
| 2026-04-28 03:01 | -33.44519 | -60.02842 | 36113 ft | 432 kts | 303° |
| 2026-04-28 03:01 | -33.40629 | -60.08342 | 36112 ft | 432 kts | 304° |
| 2026-04-28 03:02 | -33.36727 | -60.13830 | 36112 ft | 432 kts | 304° |
| 2026-04-28 03:02 | -33.32820 | -60.19313 | 36112 ft | 432 kts | 304° |
| 2026-04-28 03:03 | -33.28935 | -60.24753 | 36112 ft | 432 kts | 304° |
| 2026-04-28 03:03 | -33.25022 | -60.30224 | 36112 ft | 433 kts | 304° |
| 2026-04-28 03:04 | -33.21088 | -60.35716 | 36113 ft | 435 kts | 304° |
| 2026-04-28 03:04 | -33.17181 | -60.41163 | 36112 ft | 434 kts | 304° |
| 2026-04-28 03:05 | -33.13250 | -60.46633 | 36134 ft | 431 kts | 304° |
| 2026-04-28 03:05 | -33.09371 | -60.52058 | 36139 ft | 427 kts | 304° |
| 2026-04-28 03:06 | -33.05497 | -60.57445 | 36139 ft | 429 kts | 304° |
| 2026-04-28 03:06 | -33.01624 | -60.62799 | 36140 ft | 429 kts | 304° |
| 2026-04-28 03:07 | -32.97721 | -60.68187 | 36141 ft | 429 kts | 304° |
| 2026-04-28 03:07 | -32.93811 | -60.73578 | 36141 ft | 429 kts | 304° |
| 2026-04-28 03:08 | -32.90022 | -60.79036 | 36144 ft | 423 kts | 300° |
| 2026-04-28 03:08 | -32.86891 | -60.84906 | 36142 ft | 421 kts | 295° |
| 2026-04-28 03:09 | -32.84002 | -60.91012 | 36141 ft | 424 kts | 294° |
| 2026-04-28 03:09 | -32.81073 | -60.97087 | 36137 ft | 424 kts | 295° |
| 2026-04-28 03:10 | -32.78088 | -61.03140 | 36136 ft | 424 kts | 295° |
| 2026-04-28 03:10 | -32.75086 | -61.09183 | 36139 ft | 425 kts | 295° |
| 2026-04-28 03:11 | -32.72099 | -61.15201 | 36138 ft | 420 kts | 295° |
| 2026-04-28 03:11 | -32.69162 | -61.21166 | 36133 ft | 422 kts | 295° |
| 2026-04-28 03:12 | -32.66166 | -61.27196 | 36129 ft | 424 kts | 295° |
| 2026-04-28 03:12 | -32.63153 | -61.33235 | 36128 ft | 425 kts | 295° |
| 2026-04-28 03:13 | -32.60131 | -61.39278 | 36128 ft | 426 kts | 295° |
| 2026-04-28 03:13 | -32.57109 | -61.45309 | 36135 ft | 424 kts | 295° |
| 2026-04-28 03:14 | -32.54098 | -61.51308 | 36137 ft | 423 kts | 295° |
| 2026-04-28 03:14 | -32.51099 | -61.57273 | 36137 ft | 424 kts | 296° |
| 2026-04-28 03:15 | -32.48077 | -61.63330 | 36137 ft | 427 kts | 295° |
| 2026-04-28 03:15 | -32.45038 | -61.69356 | 36137 ft | 424 kts | 296° |
| 2026-04-28 03:16 | -32.42021 | -61.75310 | 36138 ft | 424 kts | 296° |
| 2026-04-28 03:16 | -32.38978 | -61.81307 | 36138 ft | 423 kts | 296° |
| 2026-04-28 03:17 | -32.35958 | -61.87252 | 36138 ft | 425 kts | 296° |
| 2026-04-28 03:17 | -32.31383 | -61.96248 | 36138 ft | 424 kts | 296° |
| 2026-04-28 03:18 | -32.28330 | -62.02231 | 36138 ft | 424 kts | 296° |
| 2026-04-28 03:18 | -32.25283 | -62.08192 | 36133 ft | 417 kts | 296° |
| 2026-04-28 03:19 | -32.23821 | -62.11047 | 35916 ft | 407 kts | 296° |
| 2026-04-28 03:19 | -32.22366 | -62.13887 | 35585 ft | 400 kts | 296° |
| 2026-04-28 03:19 | -32.20923 | -62.16703 | 35121 ft | 398 kts | 296° |
| 2026-04-28 03:19 | -32.19486 | -62.19503 | 34656 ft | 396 kts | 296° |
| 2026-04-28 03:20 | -32.18078 | -62.22245 | 34204 ft | 394 kts | 296° |
| 2026-04-28 03:20 | -32.16660 | -62.25006 | 33773 ft | 392 kts | 296° |
| 2026-04-28 03:20 | -32.15260 | -62.27759 | 33337 ft | 389 kts | 295° |
| 2026-04-28 03:20 | -32.13878 | -62.30491 | 32892 ft | 387 kts | 296° |
| 2026-04-28 03:21 | -32.12490 | -62.33220 | 32442 ft | 385 kts | 296° |
| 2026-04-28 03:21 | -32.11575 | -62.35012 | 32171 ft | 384 kts | 296° |
| 2026-04-28 03:21 | -32.09771 | -62.38537 | 31634 ft | 380 kts | 296° |
| 2026-04-28 03:21 | -32.08864 | -62.40307 | 31361 ft | 378 kts | 296° |
| 2026-04-28 03:22 | -32.07504 | -62.42955 | 30946 ft | 376 kts | 296° |
| 2026-04-28 03:22 | -32.06149 | -62.45591 | 30535 ft | 374 kts | 296° |
| 2026-04-28 03:22 | -32.04802 | -62.48209 | 30130 ft | 371 kts | 296° |
| 2026-04-28 03:22 | -32.03484 | -62.50769 | 29719 ft | 369 kts | 296° |
| 2026-04-28 03:23 | -32.02155 | -62.53347 | 29285 ft | 367 kts | 296° |
| 2026-04-28 03:23 | -32.00833 | -62.55910 | 28853 ft | 364 kts | 296° |
| 2026-04-28 03:23 | -31.99519 | -62.58455 | 28408 ft | 363 kts | 296° |
| 2026-04-28 03:23 | -31.98211 | -62.60988 | 27985 ft | 360 kts | 296° |
| 2026-04-28 03:24 | -31.96909 | -62.63506 | 27558 ft | 358 kts | 296° |
| 2026-04-28 03:24 | -31.95615 | -62.66006 | 27132 ft | 356 kts | 296° |
| 2026-04-28 03:24 | -31.94333 | -62.68483 | 26715 ft | 353 kts | 296° |
| 2026-04-28 03:24 | -31.93070 | -62.70923 | 26309 ft | 351 kts | 296° |
| 2026-04-28 03:25 | -31.91801 | -62.73371 | 25899 ft | 349 kts | 296° |
| 2026-04-28 03:25 | -31.90542 | -62.75797 | 25490 ft | 346 kts | 296° |
| 2026-04-28 03:25 | -31.89289 | -62.78212 | 25074 ft | 345 kts | 296° |
| 2026-04-28 03:25 | -31.88044 | -62.80610 | 24674 ft | 342 kts | 297° |
| 2026-04-28 03:26 | -31.86801 | -62.83003 | 24276 ft | 340 kts | 296° |
| 2026-04-28 03:26 | -31.85587 | -62.85338 | 23879 ft | 338 kts | 296° |
| 2026-04-28 03:26 | -31.84364 | -62.87688 | 23479 ft | 336 kts | 296° |
| 2026-04-28 03:26 | -31.83156 | -62.90023 | 23079 ft | 333 kts | 296° |
| 2026-04-28 03:27 | -31.81959 | -62.92350 | 22681 ft | 331 kts | 296° |
| 2026-04-28 03:27 | -31.80762 | -62.94658 | 22275 ft | 330 kts | 296° |
| 2026-04-28 03:27 | -31.79562 | -62.96963 | 21872 ft | 328 kts | 296° |
| 2026-04-28 03:27 | -31.78374 | -62.99236 | 21477 ft | 326 kts | 296° |
| 2026-04-28 03:28 | -31.77188 | -63.01503 | 21080 ft | 325 kts | 296° |
| 2026-04-28 03:28 | -31.76007 | -63.03757 | 20680 ft | 323 kts | 296° |
| 2026-04-28 03:28 | -31.74826 | -63.06009 | 20282 ft | 322 kts | 296° |
| 2026-04-28 03:28 | -31.73652 | -63.08247 | 19811 ft | 322 kts | 296° |
| 2026-04-28 03:29 | -31.72487 | -63.10467 | 19381 ft | 322 kts | 296° |
| 2026-04-28 03:29 | -31.71310 | -63.12708 | 18964 ft | 322 kts | 296° |
| 2026-04-28 03:29 | -31.70135 | -63.14944 | 18531 ft | 322 kts | 296° |
| 2026-04-28 03:29 | -31.68962 | -63.17177 | 18122 ft | 321 kts | 296° |
| 2026-04-28 03:30 | -31.67789 | -63.19411 | 17707 ft | 320 kts | 297° |
| 2026-04-28 03:30 | -31.66620 | -63.21646 | 17262 ft | 320 kts | 296° |
| 2026-04-28 03:30 | -31.65514 | -63.23903 | 16856 ft | 319 kts | 294° |
| 2026-04-28 03:30 | -31.64457 | -63.26189 | 16448 ft | 318 kts | 293° |
| 2026-04-28 03:31 | -31.63434 | -63.28452 | 16043 ft | 317 kts | 294° |
| 2026-04-28 03:31 | -31.62397 | -63.30733 | 15641 ft | 316 kts | 294° |
| 2026-04-28 03:31 | -31.61355 | -63.33009 | 15236 ft | 316 kts | 294° |
| 2026-04-28 03:31 | -31.60313 | -63.35274 | 14827 ft | 315 kts | 294° |
| 2026-04-28 03:32 | -31.59264 | -63.37545 | 14418 ft | 315 kts | 294° |
| 2026-04-28 03:32 | -31.58231 | -63.39811 | 14014 ft | 315 kts | 294° |
| 2026-04-28 03:32 | -31.57199 | -63.42084 | 13615 ft | 314 kts | 294° |
| 2026-04-28 03:32 | -31.56164 | -63.44340 | 13227 ft | 314 kts | 295° |
| 2026-04-28 03:33 | -31.55139 | -63.46558 | 12851 ft | 313 kts | 295° |
| 2026-04-28 03:33 | -31.54095 | -63.48811 | 12381 ft | 316 kts | 295° |
| 2026-04-28 03:33 | -31.53040 | -63.51079 | 11982 ft | 316 kts | 295° |
| 2026-04-28 03:33 | -31.51989 | -63.53335 | 11600 ft | 315 kts | 296° |
| 2026-04-28 03:34 | -31.50936 | -63.55594 | 11221 ft | 314 kts | 296° |
| 2026-04-28 03:34 | -31.49891 | -63.57835 | 10844 ft | 314 kts | 296° |
| 2026-04-28 03:34 | -31.48852 | -63.60062 | 10615 ft | 308 kts | 296° |
| 2026-04-28 03:34 | -31.47835 | -63.62241 | 10446 ft | 300 kts | 297° |
| 2026-04-28 03:35 | -31.46856 | -63.64338 | 10284 ft | 293 kts | 296° |
| 2026-04-28 03:35 | -31.45892 | -63.66402 | 10125 ft | 286 kts | 297° |
| 2026-04-28 03:35 | -31.44944 | -63.68432 | 9909 ft | 282 kts | 297° |
| 2026-04-28 03:35 | -31.44088 | -63.70484 | 9597 ft | 279 kts | 289° |
| 2026-04-28 03:36 | -31.43615 | -63.72672 | 9292 ft | 276 kts | 277° |
| 2026-04-28 03:36 | -31.43440 | -63.74899 | 8984 ft | 274 kts | 271° |
| 2026-04-28 03:36 | -31.43395 | -63.77129 | 8680 ft | 273 kts | 269° |
| 2026-04-28 03:36 | -31.43420 | -63.79351 | 8375 ft | 272 kts | 268° |
| 2026-04-28 03:37 | -31.43452 | -63.81564 | 8075 ft | 271 kts | 268° |
| 2026-04-28 03:37 | -31.43468 | -63.83738 | 7780 ft | 270 kts | 269° |
| 2026-04-28 03:37 | -31.43476 | -63.85932 | 7485 ft | 269 kts | 269° |
| 2026-04-28 03:37 | -31.43479 | -63.88114 | 7192 ft | 267 kts | 269° |
| 2026-04-28 03:38 | -31.43482 | -63.90293 | 6899 ft | 266 kts | 270° |
| 2026-04-28 03:38 | -31.43484 | -63.92453 | 6609 ft | 265 kts | 270° |
| 2026-04-28 03:38 | -31.43487 | -63.94609 | 6320 ft | 264 kts | 270° |
| 2026-04-28 03:38 | -31.43490 | -63.96756 | 6032 ft | 262 kts | 270° |
| 2026-04-28 03:39 | -31.43492 | -63.98872 | 5866 ft | 257 kts | 271° |
| 2026-04-28 03:39 | -31.43494 | -64.00936 | 5724 ft | 250 kts | 271° |
| 2026-04-28 03:39 | -31.43495 | -64.02921 | 5576 ft | 235 kts | 271° |
| 2026-04-28 03:39 | -31.43499 | -64.04792 | 5432 ft | 227 kts | 271° |
| 2026-04-28 03:40 | -31.43503 | -64.06651 | 5177 ft | 239 kts | 271° |
| 2026-04-28 03:40 | -31.43500 | -64.08667 | 4945 ft | 250 kts | 271° |
| 2026-04-28 03:40 | -31.43497 | -64.10725 | 4689 ft | 253 kts | 272° |
| 2026-04-28 03:40 | -31.43494 | -64.12784 | 4421 ft | 252 kts | 272° |
| 2026-04-28 03:41 | -31.43388 | -64.14775 | 4147 ft | 243 kts | 281° |
| 2026-04-28 03:41 | -31.42937 | -64.16644 | 3788 ft | 231 kts | 297° |
| 2026-04-28 03:41 | -31.41952 | -64.18038 | 3490 ft | 216 kts | 324° |
| 2026-04-28 03:41 | -31.40679 | -64.18816 | 3256 ft | 204 kts | 338° |
| 2026-04-28 03:42 | -31.39425 | -64.19522 | 2967 ft | 196 kts | 336° |
| 2026-04-28 03:42 | -31.38235 | -64.20206 | 2747 ft | 183 kts | 337° |
| 2026-04-28 03:42 | -31.37119 | -64.20735 | 2516 ft | 164 kts | 348° |
| 2026-04-28 03:42 | -31.36010 | -64.20779 | 2211 ft | 158 kts | 2° |
| 2026-04-28 03:43 | -31.34917 | -64.20775 | 2019 ft | 150 kts | 2° |
| 2026-04-28 03:43 | -31.33907 | -64.20793 | 1850 ft | 140 kts | 359° |
| 2026-04-28 03:43 | -31.32961 | -64.20804 | 1722 ft | 136 kts | 359° |
| 2026-04-28 03:43 | -31.32012 | -64.20819 | 1622 ft | 134 kts | 359° |
| 2026-04-28 03:44 | -31.31100 | -64.20834 | 1681 ft | 153 kts | 359° |
| 2026-04-28 03:44 | -31.29892 | -64.20861 | 2254 ft | 180 kts | 359° |
| 2026-04-28 03:44 | -31.28640 | -64.20896 | 3029 ft | 183 kts | 2° |
| 2026-04-28 03:44 | -31.27279 | -64.20702 | 3700 ft | 206 kts | 10° |
| 2026-04-28 03:45 | -31.25869 | -64.20199 | 3693 ft | 219 kts | 24° |
| 2026-04-28 03:45 | -31.24749 | -64.18963 | 3578 ft | 227 kts | 54° |
| 2026-04-28 03:45 | -31.24337 | -64.17188 | 3382 ft | 231 kts | 85° |
| 2026-04-28 03:45 | -31.24661 | -64.15379 | 3215 ft | 230 kts | 104° |
| 2026-04-28 03:46 | -31.25126 | -64.13618 | 3040 ft | 224 kts | 98° |
| 2026-04-28 03:46 | -31.25257 | -64.11828 | 3140 ft | 216 kts | 86° |
| 2026-04-28 03:46 | -31.25209 | -64.10027 | 3525 ft | 234 kts | 84° |
| 2026-04-28 03:46 | -31.25146 | -64.08096 | 3953 ft | 235 kts | 84° |
| 2026-04-28 03:47 | -31.25042 | -64.06210 | 4368 ft | 232 kts | 79° |
| 2026-04-28 03:47 | -31.24446 | -64.04508 | 4771 ft | 226 kts | 51° |
| 2026-04-28 03:47 | -31.23200 | -64.03401 | 4993 ft | 226 kts | 22° |
| 2026-04-28 03:47 | -31.21695 | -64.03209 | 5001 ft | 213 kts | 350° |
| 2026-04-28 03:48 | -31.20416 | -64.03953 | 5013 ft | 204 kts | 322° |
| 2026-04-28 03:48 | -31.19490 | -64.05171 | 5004 ft | 199 kts | 308° |
| 2026-04-28 03:48 | -31.18644 | -64.06437 | 5000 ft | 197 kts | 309° |
| 2026-04-28 03:48 | -31.17792 | -64.07690 | 4999 ft | 197 kts | 309° |
| 2026-04-28 03:49 | -31.16942 | -64.08940 | 4999 ft | 196 kts | 309° |
| 2026-04-28 03:49 | -31.16101 | -64.10177 | 5001 ft | 197 kts | 309° |
| 2026-04-28 03:49 | -31.15245 | -64.11438 | 5003 ft | 199 kts | 309° |
| 2026-04-28 03:49 | -31.14324 | -64.12793 | 5017 ft | 229 kts | 309° |
| 2026-04-28 03:50 | -31.13290 | -64.14316 | 5009 ft | 241 kts | 309° |
| 2026-04-28 03:50 | -31.12250 | -64.15847 | 4992 ft | 240 kts | 307° |
| 2026-04-28 03:50 | -31.11214 | -64.17373 | 5006 ft | 238 kts | 308° |
| 2026-04-28 03:50 | -31.10373 | -64.18968 | 4994 ft | 230 kts | 292° |
| 2026-04-28 03:51 | -31.10241 | -64.20802 | 4974 ft | 229 kts | 262° |
| 2026-04-28 03:51 | -31.10957 | -64.22473 | 4869 ft | 234 kts | 232° |
| 2026-04-28 03:51 | -31.12301 | -64.23519 | 4556 ft | 240 kts | 201° |
| 2026-04-28 03:51 | -31.13935 | -64.23623 | 4436 ft | 233 kts | 172° |
| 2026-04-28 03:52 | -31.15417 | -64.22980 | 4352 ft | 222 kts | 154° |
| 2026-04-28 03:52 | -31.16730 | -64.22078 | 4144 ft | 218 kts | 147° |
| 2026-04-28 03:52 | -31.18045 | -64.21205 | 3836 ft | 218 kts | 155° |
| 2026-04-28 03:52 | -31.19512 | -64.20885 | 3563 ft | 212 kts | 177° |
| 2026-04-28 03:53 | -31.20950 | -64.20961 | 3297 ft | 204 kts | 183° |
| 2026-04-28 03:53 | -31.22344 | -64.20990 | 3032 ft | 195 kts | 180° |
| 2026-04-28 03:53 | -31.23672 | -64.20968 | 2769 ft | 186 kts | 178° |
| 2026-04-28 03:53 | -31.24924 | -64.20945 | 2532 ft | 174 kts | 177° |
| 2026-04-28 03:54 | -31.26103 | -64.20922 | 2312 ft | 168 kts | 178° |
| 2026-04-28 03:54 | -31.27267 | -64.20892 | 2076 ft | 163 kts | 179° |
| 2026-04-28 03:54 | -31.28371 | -64.20882 | 1872 ft | 158 kts | 180° |
| 2026-04-28 03:54 | -31.29452 | -64.20864 | 1687 ft | 153 kts | 179° |
| 2026-04-28 03:55 | -31.30449 | -64.20845 | 1618 ft | 119 kts | 179° |
| 2026-04-28 03:55 | -31.31037 | -64.20835 | 1618 ft | 52 kts | 179° |
| 2026-04-28 03:55 | -31.31306 | -64.20828 | 1618 ft | 32 kts | 178° |
| 2026-04-28 03:55 | -31.31514 | -64.20821 | 1618 ft | 28 kts | 178° |
| 2026-04-28 03:56 | -31.31681 | -64.20861 | 1618 ft | 21 kts | 208° |
| 2026-04-28 03:56 | -31.31781 | -64.20948 | 1618 ft | 14 kts | 245° |
| 2026-04-28 03:56 | -31.31783 | -64.21023 | 1618 ft | 7 kts | 295° |
| 2026-04-28 03:56 | -31.31736 | -64.21058 | 1618 ft | 12 kts | 335° |
| 2026-04-28 03:57 | -31.31659 | -64.21070 | 1618 ft | 14 kts | 359° |
| 2026-04-28 03:57 | -31.31576 | -64.21071 | 1618 ft | 11 kts | 359° |
| 2026-04-28 03:57 | -31.31526 | -64.21093 | 1618 ft | 7 kts | 298° |
| 2026-04-28 03:57 | -31.31534 | -64.21128 | 1618 ft | 3 kts | 227° |
| 2026-04-28 03:58 | -31.31549 | -64.21153 | 1618 ft | 0 kts | 238° |
| 2026-04-28 03:58 | -31.23544 | -64.20971 | 2794 ft | 187 kts | 178° |